This is the latest recevied weather packets stored in our database for station/object KI6AOK. If no packets are shown the sender has not sent any weather packets the latest 10 day(s).
| Time | Temp. | Humidity | Pressure | Rain* | Wind** | Luminosity | Snow |
|---|---|---|---|---|---|---|---|
| 1778085475 | 18.89° C | 58% | 1018.3 hPa | 0 mm | - | 630 W/m² | - |
| 1778085170 | 18.89° C | 58% | 1018.4 hPa | 0 mm | - | 615 W/m² | - |
| 1778084866 | 17.78° C | 61% | 1018.4 hPa | 0 mm | - | 598 W/m² | - |
| 1778084564 | 18.33° C | 59% | 1018.4 hPa | 0 mm | - | 583 W/m² | - |
| 1778084261 | 18.33° C | 58% | 1018.3 hPa | 0 mm | - | 567 W/m² | - |
| 1778083958 | 17.78° C | 60% | 1018 hPa | 0 mm | - | 552 W/m² | - |
| 1778083656 | 17.78° C | 60% | 1018.2 hPa | 0 mm | - | 532 W/m² | - |
| 1778083352 | 17.22° C | 63% | 1018.1 hPa | 0 mm | - | 520 W/m² | - |
| 1778083051 | 17.22° C | 64% | 1018.5 hPa | 0 mm | - | 502 W/m² | - |
| 1778082748 | 17.22° C | 64% | 1018.2 hPa | 0 mm | - | 483 W/m² | - |
| 1778081615 | 16.67° C | 67% | 1018.3 hPa | 0 mm | - | 420 W/m² | - |
| 1778081312 | 16.67° C | 66% | 1018.5 hPa | 0 mm | - | 398 W/m² | - |
| 1778081009 | 16.11° C | 68% | 1018.3 hPa | 0 mm | - | 382 W/m² | - |
| 1778080708 | 16.11° C | 69% | 1018.3 hPa | 0 mm | - | 328 W/m² | - |
| 1778080404 | 15.56° C | 71% | 1018.5 hPa | 0 mm | - | 276 W/m² | - |
| 1778080101 | 15.56° C | 71% | 1018.3 hPa | 0 mm | - | 244 W/m² | - |
| 1778079798 | 15° C | 73% | 1018.5 hPa | 0 mm | - | 210 W/m² | - |
| 1778079495 | 15° C | 73% | 1018.4 hPa | 0 mm | - | 186 W/m² | - |
| 1778079191 | 14.44° C | 74% | 1018.5 hPa | 0 mm | - | 162 W/m² | - |
| 1778078889 | 14.44° C | 75% | 1018.4 hPa | 0 mm | - | 144 W/m² | - |
| 1778078585 | 13.89° C | 75% | 1018.4 hPa | 0 mm | - | 134 W/m² | - |
| 1778078283 | 13.89° C | 77% | 1018.4 hPa | 0 mm | - | 131 W/m² | - |
| 1778077980 | 13.33° C | 78% | 1018.4 hPa | 0 mm | - | 130 W/m² | - |
| 1778077679 | 13.33° C | 78% | 1018.3 hPa | 0 mm | - | 128 W/m² | - |
| 1778077376 | 12.78° C | 79% | 1018.1 hPa | 0 mm | - | 127 W/m² | - |
* Rain latest hour (hover to see other rain measurements)
** Current wind speed in m/s (hover to see current wind gust speed)